sensor_id;sensor_type;location;lat;lon;timestamp;pressure;altitude;pressure_sealevel;temperature;humidity
26978;BME280;56314;48.088;11.642;2024-02-15T00:02:09;95911.00;;;8.56;68.59
26978;BME280;56314;48.088;11.642;2024-02-15T00:04:36;95912.88;;;8.54;67.38
26978;BME280;56314;48.088;11.642;2024-02-15T00:07:01;95915.38;;;8.56;68.23
26978;BME280;56314;48.088;11.642;2024-02-15T00:09:27;95918.09;;;8.54;68.23
26978;BME280;56314;48.088;11.642;2024-02-15T00:11:52;95913.53;;;8.58;67.17
26978;BME280;56314;48.088;11.642;2024-02-15T00:14:19;95913.63;;;8.56;66.95
26978;BME280;56314;48.088;11.642;2024-02-15T00:16:45;95912.59;;;8.59;67.71
26978;BME280;56314;48.088;11.642;2024-02-15T00:19:11;95916.25;;;8.56;68.17
26978;BME280;56314;48.088;11.642;2024-02-15T00:21:36;95916.06;;;8.59;67.61
26978;BME280;56314;48.088;11.642;2024-02-15T00:24:02;95907.34;;;8.59;67.21
26978;BME280;56314;48.088;11.642;2024-02-15T00:26:27;95902.00;;;8.60;67.34
26978;BME280;56314;48.088;11.642;2024-02-15T00:28:52;95904.72;;;8.59;67.63
26978;BME280;56314;48.088;11.642;2024-02-15T00:31:18;95897.06;;;8.56;68.58
26978;BME280;56314;48.088;11.642;2024-02-15T00:33:44;95907.53;;;8.56;69.35
26978;BME280;56314;48.088;11.642;2024-02-15T00:36:10;95905.19;;;8.51;69.43
26978;BME280;56314;48.088;11.642;2024-02-15T00:38:35;95904.44;;;8.49;69.04
26978;BME280;56314;48.088;11.642;2024-02-15T00:41:02;95905.38;;;8.48;69.12
26978;BME280;56314;48.088;11.642;2024-02-15T00:43:27;95903.63;;;8.49;69.32
26978;BME280;56314;48.088;11.642;2024-02-15T00:45:53;95908.00;;;8.48;69.21
26978;BME280;56314;48.088;11.642;2024-02-15T00:48:18;95908.00;;;8.48;69.52
26978;BME280;56314;48.088;11.642;2024-02-15T00:50:44;95907.31;;;8.44;69.87
26978;BME280;56314;48.088;11.642;2024-02-15T00:53:09;95901.31;;;8.42;70.11
26978;BME280;56314;48.088;11.642;2024-02-15T00:55:34;95900.78;;;8.37;70.16
26978;BME280;56314;48.088;11.642;2024-02-15T00:58:00;95913.09;;;8.35;70.31
26978;BME280;56314;48.088;11.642;2024-02-15T01:00:25;95909.56;;;8.36;69.46
26978;BME280;56314;48.088;11.642;2024-02-15T01:02:51;95904.91;;;8.41;68.57
26978;BME280;56314;48.088;11.642;2024-02-15T01:05:18;95906.06;;;8.52;67.75
26978;BME280;56314;48.088;11.642;2024-02-15T01:07:43;95908.06;;;8.46;68.06
26978;BME280;56314;48.088;11.642;2024-02-15T01:10:09;95914.41;;;8.42;68.68
26978;BME280;56314;48.088;11.642;2024-02-15T01:12:34;95914.91;;;8.49;68.18
26978;BME280;56314;48.088;11.642;2024-02-15T01:15:00;95913.75;;;8.39;68.29
26978;BME280;56314;48.088;11.642;2024-02-15T01:17:25;95902.34;;;8.25;68.77
26978;BME280;56314;48.088;11.642;2024-02-15T01:19:50;95908.59;;;8.23;69.85
26978;BME280;56314;48.088;11.642;2024-02-15T01:22:17;95911.88;;;8.26;69.39
26978;BME280;56314;48.088;11.642;2024-02-15T01:24:43;95911.97;;;8.25;69.10
26978;BME280;56314;48.088;11.642;2024-02-15T01:27:08;95907.50;;;8.27;69.02
26978;BME280;56314;48.088;11.642;2024-02-15T01:29:35;95910.88;;;8.29;69.09
26978;BME280;56314;48.088;11.642;2024-02-15T01:32:01;95904.47;;;8.19;69.68
26978;BME280;56314;48.088;11.642;2024-02-15T01:34:27;95907.66;;;8.24;69.01
26978;BME280;56314;48.088;11.642;2024-02-15T01:36:53;95906.75;;;8.25;69.36
26978;BME280;56314;48.088;11.642;2024-02-15T01:39:18;95911.00;;;8.11;69.79
26978;BME280;56314;48.088;11.642;2024-02-15T01:41:49;95905.41;;;8.03;70.44
26978;BME280;56314;48.088;11.642;2024-02-15T01:44:21;95909.72;;;8.04;71.23
26978;BME280;56314;48.088;11.642;2024-02-15T01:46:47;95901.84;;;8.04;70.47
26978;BME280;56314;48.088;11.642;2024-02-15T01:49:14;95908.69;;;8.07;70.01
26978;BME280;56314;48.088;11.642;2024-02-15T01:51:41;95895.78;;;8.04;70.17
26978;BME280;56314;48.088;11.642;2024-02-15T01:54:10;95899.25;;;8.04;70.59
26978;BME280;56314;48.088;11.642;2024-02-15T01:56:35;95896.69;;;8.02;70.55
26978;BME280;56314;48.088;11.642;2024-02-15T01:59:02;95897.06;;;7.96;70.71
26978;BME280;56314;48.088;11.642;2024-02-15T02:01:29;95895.00;;;8.01;70.31
26978;BME280;56314;48.088;11.642;2024-02-15T02:03:58;95897.91;;;7.97;70.54
26978;BME280;56314;48.088;11.642;2024-02-15T02:06:24;95892.88;;;7.94;70.89
26978;BME280;56314;48.088;11.642;2024-02-15T02:08:50;95889.41;;;7.93;71.23
26978;BME280;56314;48.088;11.642;2024-02-15T02:11:15;95885.28;;;7.89;71.45
26978;BME280;56314;48.088;11.642;2024-02-15T02:13:40;95897.06;;;7.96;71.08
26978;BME280;56314;48.088;11.642;2024-02-15T02:16:24;95886.97;;;7.90;71.58
26978;BME280;56314;48.088;11.642;2024-02-15T02:18:50;95886.47;;;7.83;71.93
26978;BME280;56314;48.088;11.642;2024-02-15T02:21:16;95882.88;;;7.86;72.43
26978;BME280;56314;48.088;11.642;2024-02-15T02:23:42;95877.69;;;7.84;72.20
26978;BME280;56314;48.088;11.642;2024-02-15T02:26:07;95876.94;;;7.82;72.44
26978;BME280;56314;48.088;11.642;2024-02-15T02:28:35;95881.25;;;7.83;72.44
26978;BME280;56314;48.088;11.642;2024-02-15T02:31:01;95877.81;;;7.83;72.64
26978;BME280;56314;48.088;11.642;2024-02-15T02:33:26;95879.94;;;7.76;72.56
26978;BME280;56314;48.088;11.642;2024-02-15T02:35:53;95879.09;;;7.76;72.90
26978;BME280;56314;48.088;11.642;2024-02-15T02:38:19;95876.66;;;7.73;73.25
26978;BME280;56314;48.088;11.642;2024-02-15T02:40:45;95877.41;;;7.75;73.46
26978;BME280;56314;48.088;11.642;2024-02-15T02:43:10;95881.13;;;7.70;73.37
26978;BME280;56314;48.088;11.642;2024-02-15T02:45:36;95874.50;;;7.65;73.34
26978;BME280;56314;48.088;11.642;2024-02-15T02:48:01;95877.38;;;7.60;74.05
26978;BME280;56314;48.088;11.642;2024-02-15T02:50:26;95886.41;;;7.54;74.27
26978;BME280;56314;48.088;11.642;2024-02-15T02:52:52;95880.31;;;7.54;75.02
26978;BME280;56314;48.088;11.642;2024-02-15T02:55:17;95877.53;;;7.57;74.57
26978;BME280;56314;48.088;11.642;2024-02-15T02:57:43;95872.22;;;7.59;75.25
26978;BME280;56314;48.088;11.642;2024-02-15T03:00:12;95875.03;;;7.55;75.14
26978;BME280;56314;48.088;11.642;2024-02-15T03:02:45;95867.25;;;7.54;75.13
26978;BME280;56314;48.088;11.642;2024-02-15T03:05:11;95862.63;;;7.59;75.35
26978;BME280;56314;48.088;11.642;2024-02-15T03:07:38;95865.22;;;7.59;74.95
26978;BME280;56314;48.088;11.642;2024-02-15T03:10:06;95861.69;;;7.60;74.65
26978;BME280;56314;48.088;11.642;2024-02-15T03:12:34;95868.00;;;7.56;75.25
26978;BME280;56314;48.088;11.642;2024-02-15T03:15:01;95860.09;;;7.58;75.30
26978;BME280;56314;48.088;11.642;2024-02-15T03:17:27;95869.69;;;7.57;74.92
26978;BME280;56314;48.088;11.642;2024-02-15T03:19:52;95873.41;;;7.53;74.73
26978;BME280;56314;48.088;11.642;2024-02-15T03:22:18;95873.69;;;7.48;75.53
26978;BME280;56314;48.088;11.642;2024-02-15T03:24:43;95876.22;;;7.50;75.03
26978;BME280;56314;48.088;11.642;2024-02-15T03:27:09;95873.25;;;7.56;74.74
26978;BME280;56314;48.088;11.642;2024-02-15T03:29:37;95879.00;;;7.47;75.16
26978;BME280;56314;48.088;11.642;2024-02-15T03:32:03;95887.09;;;7.42;75.56
26978;BME280;56314;48.088;11.642;2024-02-15T03:34:30;95879.59;;;7.36;76.26
26978;BME280;56314;48.088;11.642;2024-02-15T03:36:56;95889.38;;;7.32;76.96
26978;BME280;56314;48.088;11.642;2024-02-15T03:39:21;95876.97;;;7.36;76.84
26978;BME280;56314;48.088;11.642;2024-02-15T03:41:48;95873.53;;;7.35;76.25
26978;BME280;56314;48.088;11.642;2024-02-15T03:44:14;95878.66;;;7.37;75.66
26978;BME280;56314;48.088;11.642;2024-02-15T03:46:40;95882.53;;;7.46;75.27
26978;BME280;56314;48.088;11.642;2024-02-15T03:49:05;95879.09;;;7.45;75.07
26978;BME280;56314;48.088;11.642;2024-02-15T03:51:33;95876.88;;;7.53;74.73
26978;BME280;56314;48.088;11.642;2024-02-15T03:53:59;95883.88;;;7.53;73.95
26978;BME280;56314;48.088;11.642;2024-02-15T03:56:24;95880.75;;;7.46;74.49
26978;BME280;56314;48.088;11.642;2024-02-15T03:58:49;95889.13;;;7.37;74.85
26978;BME280;56314;48.088;11.642;2024-02-15T04:01:16;95880.34;;;7.38;74.86
26978;BME280;56314;48.088;11.642;2024-02-15T04:03:41;95885.50;;;7.39;74.33
26978;BME280;56314;48.088;11.642;2024-02-15T04:06:07;95887.38;;;7.37;74.58
26978;BME280;56314;48.088;11.642;2024-02-15T04:08:32;95881.44;;;7.34;74.56
26978;BME280;56314;48.088;11.642;2024-02-15T04:10:58;95879.03;;;7.31;75.56
26978;BME280;56314;48.088;11.642;2024-02-15T04:13:24;95877.25;;;7.31;75.36
26978;BME280;56314;48.088;11.642;2024-02-15T04:15:49;95876.16;;;7.35;74.61
26978;BME280;56314;48.088;11.642;2024-02-15T04:18:17;95889.28;;;7.34;74.32
26978;BME280;56314;48.088;11.642;2024-02-15T04:20:43;95886.88;;;7.31;75.19
26978;BME280;56314;48.088;11.642;2024-02-15T04:23:11;95882.56;;;7.30;75.30
26978;BME280;56314;48.088;11.642;2024-02-15T04:25:36;95881.44;;;7.34;74.17
26978;BME280;56314;48.088;11.642;2024-02-15T04:28:02;95887.78;;;7.30;74.33
26978;BME280;56314;48.088;11.642;2024-02-15T04:30:29;95886.88;;;7.31;74.53
26978;BME280;56314;48.088;11.642;2024-02-15T04:32:55;95893.09;;;7.28;74.19
26978;BME280;56314;48.088;11.642;2024-02-15T04:35:20;95891.75;;;7.21;74.17
26978;BME280;56314;48.088;11.642;2024-02-15T04:37:47;95897.91;;;7.20;74.73
26978;BME280;56314;48.088;11.642;2024-02-15T04:40:14;95888.31;;;7.20;74.73
26978;BME280;56314;48.088;11.642;2024-02-15T04:42:40;95895.88;;;7.25;74.62
26978;BME280;56314;48.088;11.642;2024-02-15T04:45:09;95902.31;;;7.19;74.95
26978;BME280;56314;48.088;11.642;2024-02-15T04:47:36;95891.75;;;7.21;74.53
26978;BME280;56314;48.088;11.642;2024-02-15T04:50:01;95891.09;;;7.17;75.18
26978;BME280;56314;48.088;11.642;2024-02-15T04:52:27;95903.50;;;7.14;75.41
26978;BME280;56314;48.088;11.642;2024-02-15T04:54:52;95894.72;;;7.15;75.40
26978;BME280;56314;48.088;11.642;2024-02-15T04:57:23;95896.56;;;7.13;75.34
26978;BME280;56314;48.088;11.642;2024-02-15T04:59:48;95898.59;;;7.07;76.02
26978;BME280;56314;48.088;11.642;2024-02-15T05:02:15;95895.31;;;7.04;76.83
26978;BME280;56314;48.088;11.642;2024-02-15T05:04:40;95886.81;;;7.00;76.44
26978;BME280;56314;48.088;11.642;2024-02-15T05:07:08;95896.59;;;6.97;76.30
26978;BME280;56314;48.088;11.642;2024-02-15T05:09:33;95888.16;;;6.91;76.32
26978;BME280;56314;48.088;11.642;2024-02-15T05:12:00;95884.78;;;6.89;76.79
26978;BME280;56314;48.088;11.642;2024-02-15T05:14:27;95893.72;;;6.85;76.93
26978;BME280;56314;48.088;11.642;2024-02-15T05:16:52;95888.22;;;6.74;77.87
26978;BME280;56314;48.088;11.642;2024-02-15T05:19:18;95895.72;;;6.64;77.95
26978;BME280;56314;48.088;11.642;2024-02-15T05:21:44;95884.00;;;6.55;78.62
26978;BME280;56314;48.088;11.642;2024-02-15T05:24:14;95880.94;;;6.47;79.30
26978;BME280;56314;48.088;11.642;2024-02-15T05:26:44;95883.03;;;6.40;79.23
26978;BME280;56314;48.088;11.642;2024-02-15T05:29:12;95874.59;;;6.35;79.28
26978;BME280;56314;48.088;11.642;2024-02-15T05:31:37;95874.03;;;6.30;79.53
26978;BME280;56314;48.088;11.642;2024-02-15T05:34:06;95876.38;;;6.35;79.71
26978;BME280;56314;48.088;11.642;2024-02-15T05:36:37;95880.75;;;6.34;79.39
26978;BME280;56314;48.088;11.642;2024-02-15T05:39:03;95890.09;;;6.38;78.69
26978;BME280;56314;48.088;11.642;2024-02-15T05:41:30;95884.03;;;6.38;79.03
26978;BME280;56314;48.088;11.642;2024-02-15T05:43:55;95889.44;;;6.35;78.78
26978;BME280;56314;48.088;11.642;2024-02-15T05:46:23;95891.41;;;6.29;79.73
26978;BME280;56314;48.088;11.642;2024-02-15T05:48:48;95883.59;;;6.29;79.46
26978;BME280;56314;48.088;11.642;2024-02-15T05:51:14;95891.41;;;6.29;79.27
26978;BME280;56314;48.088;11.642;2024-02-15T05:53:39;95887.31;;;6.25;79.40
26978;BME280;56314;48.088;11.642;2024-02-15T05:56:07;95879.69;;;6.21;79.35
26978;BME280;56314;48.088;11.642;2024-02-15T05:58:33;95883.56;;;6.13;80.07
26978;BME280;56314;48.088;11.642;2024-02-15T06:00:59;95887.06;;;6.12;80.53
26978;BME280;56314;48.088;11.642;2024-02-15T06:03:31;95881.88;;;6.12;79.63
26978;BME280;56314;48.088;11.642;2024-02-15T06:05:58;95883.69;;;6.10;79.45
26978;BME280;56314;48.088;11.642;2024-02-15T06:08:34;95884.94;;;6.03;80.42
26978;BME280;56314;48.088;11.642;2024-02-15T06:10:59;95877.41;;;5.97;80.60
26978;BME280;56314;48.088;11.642;2024-02-15T06:13:26;95878.16;;;5.99;80.67
26978;BME280;56314;48.088;11.642;2024-02-15T06:15:52;95879.09;;;5.98;80.25
26978;BME280;56314;48.088;11.642;2024-02-15T06:18:19;95887.56;;;6.03;80.08
26978;BME280;56314;48.088;11.642;2024-02-15T06:20:47;95887.00;;;5.96;80.34
26978;BME280;56314;48.088;11.642;2024-02-15T06:23:15;95882.56;;;5.98;80.12
26978;BME280;56314;48.088;11.642;2024-02-15T06:25:41;95893.97;;;5.96;80.64
26978;BME280;56314;48.088;11.642;2024-02-15T06:28:07;95890.59;;;5.94;80.63
26978;BME280;56314;48.088;11.642;2024-02-15T06:30:41;95887.22;;;5.92;80.50
26978;BME280;56314;48.088;11.642;2024-02-15T06:33:25;95899.13;;;5.97;80.42
26978;BME280;56314;48.088;11.642;2024-02-15T06:36:09;95899.72;;;6.03;79.67
26978;BME280;56314;48.088;11.642;2024-02-15T06:38:53;95905.81;;;6.03;80.06
26978;BME280;56314;48.088;11.642;2024-02-15T06:41:37;95903.78;;;6.08;79.86
26978;BME280;56314;48.088;11.642;2024-02-15T06:44:02;95903.72;;;6.10;79.67
26978;BME280;56314;48.088;11.642;2024-02-15T06:46:28;95907.13;;;6.12;79.36
26978;BME280;56314;48.088;11.642;2024-02-15T06:48:54;95910.94;;;6.22;78.90
26978;BME280;56314;48.088;11.642;2024-02-15T06:51:19;95912.44;;;6.26;79.10
26978;BME280;56314;48.088;11.642;2024-02-15T06:53:45;95908.00;;;6.28;78.44
26978;BME280;56314;48.088;11.642;2024-02-15T06:56:11;95915.19;;;6.41;77.39
26978;BME280;56314;48.088;11.642;2024-02-15T06:58:39;95911.41;;;6.46;76.91
26978;BME280;56314;48.088;11.642;2024-02-15T07:01:05;95913.03;;;6.49;77.20
26978;BME280;56314;48.088;11.642;2024-02-15T07:03:31;95909.41;;;6.52;77.07
26978;BME280;56314;48.088;11.642;2024-02-15T07:06:00;95909.69;;;6.63;76.64
26978;BME280;56314;48.088;11.642;2024-02-15T07:08:26;95915.31;;;6.71;75.70
26978;BME280;56314;48.088;11.642;2024-02-15T07:10:51;95917.63;;;6.77;75.36
26978;BME280;56314;48.088;11.642;2024-02-15T07:13:17;95912.91;;;6.84;74.81
26978;BME280;56314;48.088;11.642;2024-02-15T07:15:43;95914.25;;;6.91;74.43
26978;BME280;56314;48.088;11.642;2024-02-15T07:18:09;95912.16;;;6.98;74.67
26978;BME280;56314;48.088;11.642;2024-02-15T07:20:35;95905.25;;;7.13;73.48
26978;BME280;56314;48.088;11.642;2024-02-15T07:23:02;95905.16;;;7.15;72.94
26978;BME280;56314;48.088;11.642;2024-02-15T07:25:28;95911.38;;;7.12;73.52
26978;BME280;56314;48.088;11.642;2024-02-15T07:27:54;95913.00;;;7.15;73.25
26978;BME280;56314;48.088;11.642;2024-02-15T07:30:20;95904.56;;;7.09;73.82
26978;BME280;56314;48.088;11.642;2024-02-15T07:32:45;95908.97;;;7.09;73.93
26978;BME280;56314;48.088;11.642;2024-02-15T07:35:11;95901.59;;;7.16;73.86
26978;BME280;56314;48.088;11.642;2024-02-15T07:37:36;95902.63;;;7.13;72.96
26978;BME280;56314;48.088;11.642;2024-02-15T07:40:02;95901.88;;;7.11;74.39
26978;BME280;56314;48.088;11.642;2024-02-15T07:42:32;95893.34;;;7.23;74.11
26978;BME280;56314;48.088;11.642;2024-02-15T07:45:00;95889.47;;;7.31;73.88
26978;BME280;56314;48.088;11.642;2024-02-15T07:47:25;95884.56;;;7.40;73.38
26978;BME280;56314;48.088;11.642;2024-02-15T07:49:52;95886.97;;;7.60;73.55
26978;BME280;56314;48.088;11.642;2024-02-15T07:52:17;95884.63;;;7.85;72.08
26978;BME280;56314;48.088;11.642;2024-02-15T07:54:43;95880.22;;;8.16;70.82
26978;BME280;56314;48.088;11.642;2024-02-15T07:57:08;95876.59;;;8.48;68.62
26978;BME280;56314;48.088;11.642;2024-02-15T07:59:34;95870.28;;;8.80;67.52
26978;BME280;56314;48.088;11.642;2024-02-15T08:02:01;95862.03;;;9.00;65.02
26978;BME280;56314;48.088;11.642;2024-02-15T08:04:26;95868.81;;;9.17;64.59
26978;BME280;56314;48.088;11.642;2024-02-15T08:06:51;95867.38;;;9.53;63.16
26978;BME280;56314;48.088;11.642;2024-02-15T08:09:20;95863.69;;;10.09;61.42
26978;BME280;56314;48.088;11.642;2024-02-15T08:11:49;95863.94;;;10.58;59.56
26978;BME280;56314;48.088;11.642;2024-02-15T08:14:15;95862.41;;;10.92;57.94
26978;BME280;56314;48.088;11.642;2024-02-15T08:16:40;95854.03;;;11.36;56.62
26978;BME280;56314;48.088;11.642;2024-02-15T08:19:06;95853.13;;;11.73;55.64
26978;BME280;56314;48.088;11.642;2024-02-15T08:21:33;95843.69;;;12.17;54.74
26978;BME280;56314;48.088;11.642;2024-02-15T08:24:01;95837.34;;;12.76;52.52
26978;BME280;56314;48.088;11.642;2024-02-15T08:26:39;95828.97;;;13.38;50.29
26978;BME280;56314;48.088;11.642;2024-02-15T08:29:05;95829.56;;;13.95;49.11
26978;BME280;56314;48.088;11.642;2024-02-15T08:31:31;95821.78;;;14.15;48.14
26978;BME280;56314;48.088;11.642;2024-02-15T08:33:57;95822.66;;;14.56;47.98
26978;BME280;56314;48.088;11.642;2024-02-15T08:36:23;95822.38;;;14.81;46.85
26978;BME280;56314;48.088;11.642;2024-02-15T08:38:49;95827.00;;;14.88;46.91
26978;BME280;56314;48.088;11.642;2024-02-15T08:41:15;95816.38;;;15.29;46.20
26978;BME280;56314;48.088;11.642;2024-02-15T08:43:43;95811.94;;;15.69;45.01
26978;BME280;56314;48.088;11.642;2024-02-15T08:46:08;95806.19;;;16.03;44.34
26978;BME280;56314;48.088;11.642;2024-02-15T08:48:35;95805.56;;;16.39;44.09
26978;BME280;56314;48.088;11.642;2024-02-15T08:51:00;95797.06;;;16.73;43.68
26978;BME280;56314;48.088;11.642;2024-02-15T08:53:26;95800.09;;;17.34;41.83
26978;BME280;56314;48.088;11.642;2024-02-15T08:55:52;95805.00;;;18.01;40.54
26978;BME280;56314;48.088;11.642;2024-02-15T08:58:21;95795.50;;;18.86;38.41
26978;BME280;56314;48.088;11.642;2024-02-15T09:00:49;95792.03;;;19.45;37.71
26978;BME280;56314;48.088;11.642;2024-02-15T09:03:14;95782.44;;;20.10;36.28
26978;BME280;56314;48.088;11.642;2024-02-15T09:05:40;95778.50;;;20.54;35.46
26978;BME280;56314;48.088;11.642;2024-02-15T09:08:06;95780.91;;;20.88;34.71
26978;BME280;56314;48.088;11.642;2024-02-15T09:10:31;95786.72;;;21.23;33.95
26978;BME280;56314;48.088;11.642;2024-02-15T09:12:57;95776.41;;;21.52;33.67
26978;BME280;56314;48.088;11.642;2024-02-15T09:15:22;95778.44;;;21.73;33.48
26978;BME280;56314;48.088;11.642;2024-02-15T09:17:48;95780.09;;;21.97;34.13
26978;BME280;56314;48.088;11.642;2024-02-15T09:20:15;95772.38;;;22.18;33.15
26978;BME280;56314;48.088;11.642;2024-02-15T09:22:47;95767.16;;;22.54;32.04
26978;BME280;56314;48.088;11.642;2024-02-15T09:25:13;95767.16;;;22.99;31.25
26978;BME280;56314;48.088;11.642;2024-02-15T09:27:41;95757.03;;;23.53;30.56
26978;BME280;56314;48.088;11.642;2024-02-15T09:30:07;95753.47;;;23.67;30.68
26978;BME280;56314;48.088;11.642;2024-02-15T09:32:38;95756.88;;;23.55;30.28
26978;BME280;56314;48.088;11.642;2024-02-15T09:35:05;95747.84;;;24.06;29.87
26978;BME280;56314;48.088;11.642;2024-02-15T09:37:33;95745.16;;;24.34;30.16
26978;BME280;56314;48.088;11.642;2024-02-15T09:39:59;95745.31;;;24.61;29.14
26978;BME280;56314;48.088;11.642;2024-02-15T09:42:29;95745.91;;;24.92;29.08
26978;BME280;56314;48.088;11.642;2024-02-15T09:44:54;95740.94;;;25.44;29.20
26978;BME280;56314;48.088;11.642;2024-02-15T09:47:20;95739.50;;;25.68;28.10
26978;BME280;56314;48.088;11.642;2024-02-15T09:49:46;95741.41;;;26.01;28.55
26978;BME280;56314;48.088;11.642;2024-02-15T09:52:12;95740.78;;;25.99;28.13
26978;BME280;56314;48.088;11.642;2024-02-15T09:54:42;95741.00;;;25.91;28.47
26978;BME280;56314;48.088;11.642;2024-02-15T09:57:11;95734.38;;;26.07;28.84
26978;BME280;56314;48.088;11.642;2024-02-15T09:59:40;95726.91;;;26.29;27.96
26978;BME280;56314;48.088;11.642;2024-02-15T10:02:07;95731.59;;;26.67;28.08
26978;BME280;56314;48.088;11.642;2024-02-15T10:04:37;95720.19;;;26.65;27.87
26978;BME280;56314;48.088;11.642;2024-02-15T10:07:02;95715.22;;;26.76;27.69
26978;BME280;56314;48.088;11.642;2024-02-15T10:09:29;95721.09;;;26.39;28.12
26978;BME280;56314;48.088;11.642;2024-02-15T10:11:59;95724.63;;;26.39;28.36
26978;BME280;56314;48.088;11.642;2024-02-15T10:14:26;95720.69;;;26.42;28.23
26978;BME280;56314;48.088;11.642;2024-02-15T10:16:55;95709.16;;;26.94;27.60
26978;BME280;56314;48.088;11.642;2024-02-15T10:19:22;95714.47;;;26.41;27.57
26978;BME280;56314;48.088;11.642;2024-02-15T10:21:54;95711.06;;;26.66;27.00
26978;BME280;56314;48.088;11.642;2024-02-15T10:24:23;95712.59;;;26.49;27.91
26978;BME280;56314;48.088;11.642;2024-02-15T10:27:00;95715.91;;;26.57;27.81
26978;BME280;56314;48.088;11.642;2024-02-15T10:29:29;95708.91;;;25.96;28.18
26978;BME280;56314;48.088;11.642;2024-02-15T10:31:56;95707.84;;;25.57;28.79
26978;BME280;56314;48.088;11.642;2024-02-15T10:34:24;95705.78;;;25.52;29.69
26978;BME280;56314;48.088;11.642;2024-02-15T10:37:09;95704.56;;;25.48;29.28
26978;BME280;56314;48.088;11.642;2024-02-15T10:39:36;95699.41;;;25.87;28.31
26978;BME280;56314;48.088;11.642;2024-02-15T10:42:02;95700.75;;;25.22;29.46
26978;BME280;56314;48.088;11.642;2024-02-15T10:44:28;95693.31;;;25.24;29.58
26978;BME280;56314;48.088;11.642;2024-02-15T10:46:54;95686.06;;;25.25;29.20
26978;BME280;56314;48.088;11.642;2024-02-15T10:49:24;95687.56;;;24.37;30.60
26978;BME280;56314;48.088;11.642;2024-02-15T10:52:10;95685.75;;;24.79;29.83
26978;BME280;56314;48.088;11.642;2024-02-15T10:54:53;95674.06;;;24.58;29.85
26978;BME280;56314;48.088;11.642;2024-02-15T10:57:25;95683.19;;;24.64;30.37
26978;BME280;56314;48.088;11.642;2024-02-15T10:59:58;95672.38;;;24.51;30.49
26978;BME280;56314;48.088;11.642;2024-02-15T11:02:30;95662.25;;;24.46;29.81
26978;BME280;56314;48.088;11.642;2024-02-15T11:05:01;95664.19;;;24.66;30.31
26978;BME280;56314;48.088;11.642;2024-02-15T11:07:31;95658.75;;;24.52;30.04
26978;BME280;56314;48.088;11.642;2024-02-15T11:09:57;95653.63;;;23.87;30.46
26978;BME280;56314;48.088;11.642;2024-02-15T11:12:23;95646.25;;;23.96;31.43
26978;BME280;56314;48.088;11.642;2024-02-15T11:14:51;95659.47;;;23.69;30.92
26978;BME280;56314;48.088;11.642;2024-02-15T11:20:03;95650.28;;;22.55;32.06
26978;BME280;56314;48.088;11.642;2024-02-15T11:22:34;95648.41;;;22.10;32.97
26978;BME280;56314;48.088;11.642;2024-02-15T11:25:05;95645.38;;;22.43;32.75
26978;BME280;56314;48.088;11.642;2024-02-15T11:27:42;95634.69;;;22.43;33.08
26978;BME280;56314;48.088;11.642;2024-02-15T11:30:07;95622.78;;;22.31;33.48
26978;BME280;56314;48.088;11.642;2024-02-15T11:32:44;95634.41;;;22.08;32.98
26978;BME280;56314;48.088;11.642;2024-02-15T11:40:20;95626.56;;;21.38;34.41
26978;BME280;56314;48.088;11.642;2024-02-15T11:42:55;95626.94;;;20.57;35.21
26978;BME280;56314;48.088;11.642;2024-02-15T11:45:23;95620.47;;;20.83;35.11
26978;BME280;56314;48.088;11.642;2024-02-15T11:47:52;95623.09;;;21.15;34.80
26978;BME280;56314;48.088;11.642;2024-02-15T11:50:19;95614.94;;;20.85;34.78
26978;BME280;56314;48.088;11.642;2024-02-15T11:52:46;95610.66;;;20.44;35.33
26978;BME280;56314;48.088;11.642;2024-02-15T11:55:17;95607.41;;;20.57;35.72
26978;BME280;56314;48.088;11.642;2024-02-15T11:58:05;95599.53;;;20.40;36.50
26978;BME280;56314;48.088;11.642;2024-02-15T12:00:37;95596.84;;;20.72;35.70
26978;BME280;56314;48.088;11.642;2024-02-15T12:03:22;95586.78;;;20.82;35.52
26978;BME280;56314;48.088;11.642;2024-02-15T12:06:06;95586.78;;;20.19;36.15
26978;BME280;56314;48.088;11.642;2024-02-15T12:08:52;95591.63;;;20.15;36.66
26978;BME280;56314;48.088;11.642;2024-02-15T12:11:36;95597.50;;;19.21;37.56
26978;BME280;56314;48.088;11.642;2024-02-15T12:14:20;95587.88;;;18.96;38.85
26978;BME280;56314;48.088;11.642;2024-02-15T12:19:50;95583.00;;;18.07;40.92
26978;BME280;56314;48.088;11.642;2024-02-15T12:22:18;95588.03;;;17.57;42.42
26978;BME280;56314;48.088;11.642;2024-02-15T12:24:52;95585.34;;;17.22;42.64
26978;BME280;56314;48.088;11.642;2024-02-15T12:27:18;95591.94;;;17.18;43.46
26978;BME280;56314;48.088;11.642;2024-02-15T12:29:44;95579.69;;;16.99;43.16
26978;BME280;56314;48.088;11.642;2024-02-15T12:32:20;95580.66;;;16.80;44.31
26978;BME280;56314;48.088;11.642;2024-02-15T12:34:45;95581.00;;;16.77;44.61
26978;BME280;56314;48.088;11.642;2024-02-15T12:37:12;95573.41;;;16.64;44.40
26978;BME280;56314;48.088;11.642;2024-02-15T12:39:38;95574.09;;;16.66;44.58
26978;BME280;56314;48.088;11.642;2024-02-15T12:42:06;95569.38;;;16.60;44.99
26978;BME280;56314;48.088;11.642;2024-02-15T12:44:32;95562.50;;;16.49;44.49
26978;BME280;56314;48.088;11.642;2024-02-15T12:46:59;95560.31;;;16.44;44.52
26978;BME280;56314;48.088;11.642;2024-02-15T12:51:54;95561.53;;;16.50;44.10
26978;BME280;56314;48.088;11.642;2024-02-15T12:54:39;95563.41;;;16.76;44.49
26978;BME280;56314;48.088;11.642;2024-02-15T12:57:08;95558.09;;;17.38;43.57
26978;BME280;56314;48.088;11.642;2024-02-15T12:59:39;95545.28;;;18.03;42.03
26978;BME280;56314;48.088;11.642;2024-02-15T13:02:04;95549.25;;;17.99;41.18
26978;BME280;56314;48.088;11.642;2024-02-15T13:04:30;95538.69;;;18.07;41.39
26978;BME280;56314;48.088;11.642;2024-02-15T13:06:55;95534.16;;;17.99;41.07
26978;BME280;56314;48.088;11.642;2024-02-15T13:09:20;95522.56;;;18.17;41.15
26978;BME280;56314;48.088;11.642;2024-02-15T13:11:48;95523.59;;;18.24;41.71
26978;BME280;56314;48.088;11.642;2024-02-15T13:14:15;95528.38;;;18.12;40.98